sensor_id;sensor_type;location;lat;lon;timestamp;P1;durP1;ratioP1;P2;durP2;ratioP2
11675;SDS011;5894;42.768;23.404;2023-04-06T00:00:23;12.23;;;8.67;;
11675;SDS011;5894;42.768;23.404;2023-04-06T00:02:51;10.07;;;8.13;;
11675;SDS011;5894;42.768;23.404;2023-04-06T00:05:18;11.40;;;8.27;;
11675;SDS011;5894;42.768;23.404;2023-04-06T00:07:46;10.77;;;8.87;;
11675;SDS011;5894;42.768;23.404;2023-04-06T00:10:12;13.17;;;8.67;;
11675;SDS011;5894;42.768;23.404;2023-04-06T00:12:40;12.30;;;8.67;;
11675;SDS011;5894;42.768;23.404;2023-04-06T00:15:07;10.33;;;8.10;;
11675;SDS011;5894;42.768;23.404;2023-04-06T00:17:36;11.37;;;8.67;;
11675;SDS011;5894;42.768;23.404;2023-04-06T00:20:03;11.57;;;9.03;;
11675;SDS011;5894;42.768;23.404;2023-04-06T00:22:30;11.30;;;8.30;;
11675;SDS011;5894;42.768;23.404;2023-04-06T00:24:57;12.97;;;8.87;;
11675;SDS011;5894;42.768;23.404;2023-04-06T00:27:24;13.07;;;9.13;;
11675;SDS011;5894;42.768;23.404;2023-04-06T00:29:51;12.20;;;8.67;;
11675;SDS011;5894;42.768;23.404;2023-04-06T00:32:17;13.23;;;8.83;;
11675;SDS011;5894;42.768;23.404;2023-04-06T00:34:46;12.70;;;9.47;;
11675;SDS011;5894;42.768;23.404;2023-04-06T00:37:13;12.07;;;9.40;;
11675;SDS011;5894;42.768;23.404;2023-04-06T00:39:39;13.63;;;9.60;;
11675;SDS011;5894;42.768;23.404;2023-04-06T00:42:07;11.57;;;9.33;;
11675;SDS011;5894;42.768;23.404;2023-04-06T00:44:38;13.50;;;9.37;;
11675;SDS011;5894;42.768;23.404;2023-04-06T00:47:05;13.47;;;9.63;;
11675;SDS011;5894;42.768;23.404;2023-04-06T00:49:32;11.83;;;9.20;;
11675;SDS011;5894;42.768;23.404;2023-04-06T00:52:00;12.60;;;9.60;;
11675;SDS011;5894;42.768;23.404;2023-04-06T00:54:28;12.10;;;9.77;;
11675;SDS011;5894;42.768;23.404;2023-04-06T00:56:56;14.67;;;10.50;;
11675;SDS011;5894;42.768;23.404;2023-04-06T00:59:25;12.53;;;9.90;;
11675;SDS011;5894;42.768;23.404;2023-04-06T01:01:54;13.00;;;9.63;;
11675;SDS011;5894;42.768;23.404;2023-04-06T01:04:31;15.17;;;10.50;;
11675;SDS011;5894;42.768;23.404;2023-04-06T01:07:01;13.40;;;9.80;;
11675;SDS011;5894;42.768;23.404;2023-04-06T01:09:36;11.60;;;8.73;;
11675;SDS011;5894;42.768;23.404;2023-04-06T01:12:13;12.40;;;9.00;;
11675;SDS011;5894;42.768;23.404;2023-04-06T01:14:40;12.07;;;8.73;;
11675;SDS011;5894;42.768;23.404;2023-04-06T01:17:07;11.83;;;8.93;;
11675;SDS011;5894;42.768;23.404;2023-04-06T01:19:34;11.93;;;8.67;;
11675;SDS011;5894;42.768;23.404;2023-04-06T01:22:03;11.73;;;9.13;;
11675;SDS011;5894;42.768;23.404;2023-04-06T01:24:31;12.27;;;9.27;;
11675;SDS011;5894;42.768;23.404;2023-04-06T01:27:13;13.07;;;9.33;;
11675;SDS011;5894;42.768;23.404;2023-04-06T01:29:58;13.60;;;9.63;;
11675;SDS011;5894;42.768;23.404;2023-04-06T01:32:48;11.63;;;9.00;;
11675;SDS011;5894;42.768;23.404;2023-04-06T01:35:22;13.07;;;9.10;;
11675;SDS011;5894;42.768;23.404;2023-04-06T01:38:01;12.37;;;9.17;;
11675;SDS011;5894;42.768;23.404;2023-04-06T01:40:33;13.23;;;10.07;;
11675;SDS011;5894;42.768;23.404;2023-04-06T01:43:00;12.63;;;9.43;;
11675;SDS011;5894;42.768;23.404;2023-04-06T01:45:36;14.90;;;9.73;;
11675;SDS011;5894;42.768;23.404;2023-04-06T01:48:14;12.57;;;8.93;;
11675;SDS011;5894;42.768;23.404;2023-04-06T01:50:41;16.70;;;10.97;;
11675;SDS011;5894;42.768;23.404;2023-04-06T01:53:09;13.83;;;10.57;;
11675;SDS011;5894;42.768;23.404;2023-04-06T01:55:40;15.77;;;10.37;;
11675;SDS011;5894;42.768;23.404;2023-04-06T01:58:29;15.30;;;10.40;;
11675;SDS011;5894;42.768;23.404;2023-04-06T02:00:57;12.77;;;9.53;;
11675;SDS011;5894;42.768;23.404;2023-04-06T02:03:26;13.57;;;10.07;;
11675;SDS011;5894;42.768;23.404;2023-04-06T02:06:02;12.77;;;9.53;;
11675;SDS011;5894;42.768;23.404;2023-04-06T02:08:34;14.27;;;9.30;;
11675;SDS011;5894;42.768;23.404;2023-04-06T02:11:03;15.90;;;10.37;;
11675;SDS011;5894;42.768;23.404;2023-04-06T02:13:38;14.20;;;10.00;;
11675;SDS011;5894;42.768;23.404;2023-04-06T02:16:05;13.03;;;9.90;;
11675;SDS011;5894;42.768;23.404;2023-04-06T02:18:33;12.13;;;9.50;;
11675;SDS011;5894;42.768;23.404;2023-04-06T02:21:00;15.37;;;10.43;;
11675;SDS011;5894;42.768;23.404;2023-04-06T02:23:27;12.63;;;9.00;;
11675;SDS011;5894;42.768;23.404;2023-04-06T02:25:56;12.33;;;9.27;;
11675;SDS011;5894;42.768;23.404;2023-04-06T02:28:24;13.53;;;9.50;;
11675;SDS011;5894;42.768;23.404;2023-04-06T02:30:51;12.60;;;9.27;;
11675;SDS011;5894;42.768;23.404;2023-04-06T02:33:20;15.17;;;9.90;;
11675;SDS011;5894;42.768;23.404;2023-04-06T02:35:46;13.80;;;8.80;;
11675;SDS011;5894;42.768;23.404;2023-04-06T02:38:13;14.57;;;9.87;;
11675;SDS011;5894;42.768;23.404;2023-04-06T02:40:40;12.60;;;9.10;;
11675;SDS011;5894;42.768;23.404;2023-04-06T02:43:18;12.63;;;9.00;;
11675;SDS011;5894;42.768;23.404;2023-04-06T02:45:48;14.87;;;9.33;;
11675;SDS011;5894;42.768;23.404;2023-04-06T02:48:16;14.67;;;10.30;;
11675;SDS011;5894;42.768;23.404;2023-04-06T02:50:43;13.23;;;9.27;;
11675;SDS011;5894;42.768;23.404;2023-04-06T02:53:10;14.03;;;9.20;;
11675;SDS011;5894;42.768;23.404;2023-04-06T02:55:38;12.53;;;9.30;;
11675;SDS011;5894;42.768;23.404;2023-04-06T02:58:05;11.90;;;9.20;;
11675;SDS011;5894;42.768;23.404;2023-04-06T03:00:43;13.43;;;9.50;;
11675;SDS011;5894;42.768;23.404;2023-04-06T03:03:11;13.03;;;9.43;;
11675;SDS011;5894;42.768;23.404;2023-04-06T03:05:40;12.63;;;9.90;;
11675;SDS011;5894;42.768;23.404;2023-04-06T03:08:07;13.23;;;9.70;;
11675;SDS011;5894;42.768;23.404;2023-04-06T03:10:40;12.90;;;9.87;;
11675;SDS011;5894;42.768;23.404;2023-04-06T03:13:07;15.00;;;10.27;;
11675;SDS011;5894;42.768;23.404;2023-04-06T03:16:01;13.67;;;9.83;;
11675;SDS011;5894;42.768;23.404;2023-04-06T03:18:29;14.77;;;9.40;;
11675;SDS011;5894;42.768;23.404;2023-04-06T03:20:56;15.33;;;9.53;;
11675;SDS011;5894;42.768;23.404;2023-04-06T03:23:43;15.93;;;9.83;;
11675;SDS011;5894;42.768;23.404;2023-04-06T03:26:10;14.60;;;9.90;;
11675;SDS011;5894;42.768;23.404;2023-04-06T03:28:36;15.13;;;10.40;;
11675;SDS011;5894;42.768;23.404;2023-04-06T03:31:05;14.57;;;10.53;;
11675;SDS011;5894;42.768;23.404;2023-04-06T03:33:45;15.07;;;10.30;;
11675;SDS011;5894;42.768;23.404;2023-04-06T03:36:32;13.43;;;9.73;;
11675;SDS011;5894;42.768;23.404;2023-04-06T03:39:01;13.00;;;9.93;;
11675;SDS011;5894;42.768;23.404;2023-04-06T03:41:32;15.33;;;10.73;;
11675;SDS011;5894;42.768;23.404;2023-04-06T03:44:18;17.93;;;10.43;;
11675;SDS011;5894;42.768;23.404;2023-04-06T03:46:45;14.77;;;10.07;;
11675;SDS011;5894;42.768;23.404;2023-04-06T03:49:14;17.07;;;11.23;;
11675;SDS011;5894;42.768;23.404;2023-04-06T03:51:44;13.60;;;10.30;;
11675;SDS011;5894;42.768;23.404;2023-04-06T03:54:11;17.13;;;11.13;;
11675;SDS011;5894;42.768;23.404;2023-04-06T03:56:38;15.13;;;11.07;;
11675;SDS011;5894;42.768;23.404;2023-04-06T03:59:05;14.53;;;10.30;;
11675;SDS011;5894;42.768;23.404;2023-04-06T04:01:32;15.93;;;10.80;;
11675;SDS011;5894;42.768;23.404;2023-04-06T04:03:58;13.90;;;10.37;;
11675;SDS011;5894;42.768;23.404;2023-04-06T04:06:27;15.13;;;10.70;;
11675;SDS011;5894;42.768;23.404;2023-04-06T04:08:54;15.17;;;10.60;;
11675;SDS011;5894;42.768;23.404;2023-04-06T04:11:21;13.87;;;10.37;;
11675;SDS011;5894;42.768;23.404;2023-04-06T04:13:55;15.50;;;10.93;;
11675;SDS011;5894;42.768;23.404;2023-04-06T04:16:22;16.70;;;10.80;;
11675;SDS011;5894;42.768;23.404;2023-04-06T04:18:49;16.10;;;11.27;;
11675;SDS011;5894;42.768;23.404;2023-04-06T04:21:16;18.50;;;11.37;;
11675;SDS011;5894;42.768;23.404;2023-04-06T04:23:44;14.20;;;10.77;;
11675;SDS011;5894;42.768;23.404;2023-04-06T04:26:11;14.37;;;10.50;;
11675;SDS011;5894;42.768;23.404;2023-04-06T04:28:38;15.53;;;10.87;;
11675;SDS011;5894;42.768;23.404;2023-04-06T04:31:05;16.17;;;11.10;;
11675;SDS011;5894;42.768;23.404;2023-04-06T04:33:34;16.63;;;11.60;;
11675;SDS011;5894;42.768;23.404;2023-04-06T04:36:05;17.90;;;11.53;;
11675;SDS011;5894;42.768;23.404;2023-04-06T04:38:38;15.13;;;10.73;;
11675;SDS011;5894;42.768;23.404;2023-04-06T04:41:06;16.60;;;10.87;;
11675;SDS011;5894;42.768;23.404;2023-04-06T04:43:36;15.20;;;10.87;;
11675;SDS011;5894;42.768;23.404;2023-04-06T04:46:03;16.13;;;10.87;;
11675;SDS011;5894;42.768;23.404;2023-04-06T04:48:37;17.23;;;10.73;;
11675;SDS011;5894;42.768;23.404;2023-04-06T04:51:05;17.10;;;11.67;;
11675;SDS011;5894;42.768;23.404;2023-04-06T04:53:46;16.37;;;11.40;;
11675;SDS011;5894;42.768;23.404;2023-04-06T04:56:20;15.73;;;10.57;;
11675;SDS011;5894;42.768;23.404;2023-04-06T04:58:52;14.97;;;10.27;;
11675;SDS011;5894;42.768;23.404;2023-04-06T05:01:18;16.50;;;10.53;;
11675;SDS011;5894;42.768;23.404;2023-04-06T05:03:46;18.37;;;10.77;;
11675;SDS011;5894;42.768;23.404;2023-04-06T05:06:14;19.77;;;11.57;;
11675;SDS011;5894;42.768;23.404;2023-04-06T05:08:42;15.90;;;11.07;;
11675;SDS011;5894;42.768;23.404;2023-04-06T05:11:09;14.67;;;10.37;;
11675;SDS011;5894;42.768;23.404;2023-04-06T05:13:43;18.10;;;10.60;;
11675;SDS011;5894;42.768;23.404;2023-04-06T05:16:15;16.20;;;10.83;;
11675;SDS011;5894;42.768;23.404;2023-04-06T05:18:43;15.50;;;9.70;;
11675;SDS011;5894;42.768;23.404;2023-04-06T05:21:10;16.07;;;10.20;;
11675;SDS011;5894;42.768;23.404;2023-04-06T05:23:56;13.07;;;9.50;;
11675;SDS011;5894;42.768;23.404;2023-04-06T05:26:24;14.40;;;10.17;;
11675;SDS011;5894;42.768;23.404;2023-04-06T05:28:56;15.67;;;9.97;;
11675;SDS011;5894;42.768;23.404;2023-04-06T05:31:25;15.73;;;9.67;;
11675;SDS011;5894;42.768;23.404;2023-04-06T05:33:53;13.40;;;9.27;;
11675;SDS011;5894;42.768;23.404;2023-04-06T05:36:29;12.37;;;8.87;;
11675;SDS011;5894;42.768;23.404;2023-04-06T05:38:59;13.20;;;9.20;;
11675;SDS011;5894;42.768;23.404;2023-04-06T05:41:34;16.33;;;10.53;;
11675;SDS011;5894;42.768;23.404;2023-04-06T05:44:02;14.77;;;10.13;;
11675;SDS011;5894;42.768;23.404;2023-04-06T05:46:31;15.33;;;10.33;;
11675;SDS011;5894;42.768;23.404;2023-04-06T05:48:59;18.10;;;10.97;;
11675;SDS011;5894;42.768;23.404;2023-04-06T05:51:29;13.87;;;10.20;;
11675;SDS011;5894;42.768;23.404;2023-04-06T05:53:56;13.20;;;9.47;;
11675;SDS011;5894;42.768;23.404;2023-04-06T05:56:24;16.27;;;11.53;;
11675;SDS011;5894;42.768;23.404;2023-04-06T05:58:51;16.50;;;11.30;;
11675;SDS011;5894;42.768;23.404;2023-04-06T06:01:25;14.23;;;9.83;;
11675;SDS011;5894;42.768;23.404;2023-04-06T06:03:53;15.77;;;9.83;;
11675;SDS011;5894;42.768;23.404;2023-04-06T06:06:23;14.97;;;10.07;;
11675;SDS011;5894;42.768;23.404;2023-04-06T06:09:13;15.73;;;9.87;;
11675;SDS011;5894;42.768;23.404;2023-04-06T06:11:49;15.23;;;9.97;;
11675;SDS011;5894;42.768;23.404;2023-04-06T06:14:19;13.67;;;9.80;;
11675;SDS011;5894;42.768;23.404;2023-04-06T06:16:48;14.60;;;10.83;;
11675;SDS011;5894;42.768;23.404;2023-04-06T06:19:16;13.97;;;9.97;;
11675;SDS011;5894;42.768;23.404;2023-04-06T06:21:44;16.53;;;10.90;;
11675;SDS011;5894;42.768;23.404;2023-04-06T06:24:10;14.73;;;10.43;;
11675;SDS011;5894;42.768;23.404;2023-04-06T06:26:38;15.13;;;9.10;;
11675;SDS011;5894;42.768;23.404;2023-04-06T06:29:06;19.70;;;10.73;;
11675;SDS011;5894;42.768;23.404;2023-04-06T06:31:36;15.23;;;10.67;;
11675;SDS011;5894;42.768;23.404;2023-04-06T06:34:04;17.20;;;10.30;;
11675;SDS011;5894;42.768;23.404;2023-04-06T06:36:33;14.33;;;10.50;;
11675;SDS011;5894;42.768;23.404;2023-04-06T06:39:02;14.20;;;10.77;;
11675;SDS011;5894;42.768;23.404;2023-04-06T06:41:29;19.57;;;10.83;;
11675;SDS011;5894;42.768;23.404;2023-04-06T06:43:57;16.47;;;10.43;;
11675;SDS011;5894;42.768;23.404;2023-04-06T06:46:24;15.73;;;9.97;;
11675;SDS011;5894;42.768;23.404;2023-04-06T06:48:50;13.90;;;9.87;;
11675;SDS011;5894;42.768;23.404;2023-04-06T06:51:19;15.80;;;10.47;;
11675;SDS011;5894;42.768;23.404;2023-04-06T06:53:45;14.33;;;10.47;;
11675;SDS011;5894;42.768;23.404;2023-04-06T06:56:12;15.67;;;11.00;;
11675;SDS011;5894;42.768;23.404;2023-04-06T06:58:40;17.03;;;12.13;;
11675;SDS011;5894;42.768;23.404;2023-04-06T07:01:07;22.53;;;14.60;;
11675;SDS011;5894;42.768;23.404;2023-04-06T07:03:35;17.30;;;11.00;;
11675;SDS011;5894;42.768;23.404;2023-04-06T07:06:02;17.47;;;11.10;;
11675;SDS011;5894;42.768;23.404;2023-04-06T07:08:30;15.93;;;11.40;;
11675;SDS011;5894;42.768;23.404;2023-04-06T07:10:57;16.63;;;11.40;;
11675;SDS011;5894;42.768;23.404;2023-04-06T07:13:24;16.30;;;10.57;;
11675;SDS011;5894;42.768;23.404;2023-04-06T07:15:55;15.53;;;10.40;;
11675;SDS011;5894;42.768;23.404;2023-04-06T07:18:22;16.10;;;11.30;;
11675;SDS011;5894;42.768;23.404;2023-04-06T07:20:49;15.43;;;10.43;;
11675;SDS011;5894;42.768;23.404;2023-04-06T07:23:17;17.07;;;10.47;;
11675;SDS011;5894;42.768;23.404;2023-04-06T07:25:45;14.73;;;10.60;;
11675;SDS011;5894;42.768;23.404;2023-04-06T07:28:12;15.87;;;10.23;;
11675;SDS011;5894;42.768;23.404;2023-04-06T07:30:40;12.93;;;10.00;;
11675;SDS011;5894;42.768;23.404;2023-04-06T07:33:08;15.70;;;9.43;;
11675;SDS011;5894;42.768;23.404;2023-04-06T07:35:36;19.87;;;9.73;;
11675;SDS011;5894;42.768;23.404;2023-04-06T07:38:04;11.67;;;8.87;;
11675;SDS011;5894;42.768;23.404;2023-04-06T07:40:33;17.90;;;9.70;;
11675;SDS011;5894;42.768;23.404;2023-04-06T07:43:01;14.80;;;9.40;;
11675;SDS011;5894;42.768;23.404;2023-04-06T07:45:28;13.87;;;9.60;;
11675;SDS011;5894;42.768;23.404;2023-04-06T07:47:56;18.87;;;9.70;;
11675;SDS011;5894;42.768;23.404;2023-04-06T07:50:25;13.73;;;8.47;;
11675;SDS011;5894;42.768;23.404;2023-04-06T07:52:52;12.70;;;8.47;;
11675;SDS011;5894;42.768;23.404;2023-04-06T07:55:20;11.50;;;8.73;;
11675;SDS011;5894;42.768;23.404;2023-04-06T07:57:47;12.83;;;8.50;;
11675;SDS011;5894;42.768;23.404;2023-04-06T08:00:15;11.60;;;8.77;;
11675;SDS011;5894;42.768;23.404;2023-04-06T08:02:42;14.87;;;8.83;;
11675;SDS011;5894;42.768;23.404;2023-04-06T08:05:09;16.10;;;10.87;;
11675;SDS011;5894;42.768;23.404;2023-04-06T08:07:36;23.97;;;13.30;;
11675;SDS011;5894;42.768;23.404;2023-04-06T08:10:03;23.33;;;14.43;;
11675;SDS011;5894;42.768;23.404;2023-04-06T08:12:31;13.30;;;9.27;;
11675;SDS011;5894;42.768;23.404;2023-04-06T08:14:58;11.70;;;8.13;;
11675;SDS011;5894;42.768;23.404;2023-04-06T08:17:27;10.87;;;7.87;;
11675;SDS011;5894;42.768;23.404;2023-04-06T08:19:55;12.87;;;8.10;;
11675;SDS011;5894;42.768;23.404;2023-04-06T08:22:22;14.97;;;9.87;;
11675;SDS011;5894;42.768;23.404;2023-04-06T08:24:49;12.50;;;9.43;;
11675;SDS011;5894;42.768;23.404;2023-04-06T08:27:16;16.57;;;9.73;;
11675;SDS011;5894;42.768;23.404;2023-04-06T08:29:43;11.60;;;7.87;;
11675;SDS011;5894;42.768;23.404;2023-04-06T08:32:10;11.30;;;8.13;;
11675;SDS011;5894;42.768;23.404;2023-04-06T08:34:38;12.93;;;7.80;;
11675;SDS011;5894;42.768;23.404;2023-04-06T08:37:06;9.20;;;7.37;;
11675;SDS011;5894;42.768;23.404;2023-04-06T08:39:33;11.20;;;7.20;;
11675;SDS011;5894;42.768;23.404;2023-04-06T08:42:00;10.07;;;8.07;;
11675;SDS011;5894;42.768;23.404;2023-04-06T08:44:28;11.00;;;7.10;;
11675;SDS011;5894;42.768;23.404;2023-04-06T08:46:55;11.10;;;8.17;;
11675;SDS011;5894;42.768;23.404;2023-04-06T08:49:23;10.03;;;7.60;;
11675;SDS011;5894;42.768;23.404;2023-04-06T08:51:52;13.40;;;8.80;;
11675;SDS011;5894;42.768;23.404;2023-04-06T08:54:18;11.87;;;7.80;;
11675;SDS011;5894;42.768;23.404;2023-04-06T08:56:45;10.63;;;7.80;;
11675;SDS011;5894;42.768;23.404;2023-04-06T08:59:13;10.37;;;8.00;;
11675;SDS011;5894;42.768;23.404;2023-04-06T09:01:40;11.73;;;8.20;;
11675;SDS011;5894;42.768;23.404;2023-04-06T09:04:10;11.63;;;8.10;;
11675;SDS011;5894;42.768;23.404;2023-04-06T09:06:38;11.20;;;8.00;;
11675;SDS011;5894;42.768;23.404;2023-04-06T09:09:07;17.07;;;8.70;;
11675;SDS011;5894;42.768;23.404;2023-04-06T09:11:43;12.83;;;8.30;;
11675;SDS011;5894;42.768;23.404;2023-04-06T09:14:11;10.80;;;7.97;;
11675;SDS011;5894;42.768;23.404;2023-04-06T09:16:38;11.37;;;7.97;;
11675;SDS011;5894;42.768;23.404;2023-04-06T09:19:06;13.77;;;8.40;;
11675;SDS011;5894;42.768;23.404;2023-04-06T09:21:33;10.37;;;8.80;;
11675;SDS011;5894;42.768;23.404;2023-04-06T09:24:01;11.33;;;7.93;;
11675;SDS011;5894;42.768;23.404;2023-04-06T09:26:30;11.97;;;8.33;;
11675;SDS011;5894;42.768;23.404;2023-04-06T09:28:59;12.27;;;8.60;;
11675;SDS011;5894;42.768;23.404;2023-04-06T09:31:27;12.33;;;8.70;;
11675;SDS011;5894;42.768;23.404;2023-04-06T09:33:55;10.50;;;8.13;;
11675;SDS011;5894;42.768;23.404;2023-04-06T09:36:29;11.47;;;7.60;;
11675;SDS011;5894;42.768;23.404;2023-04-06T09:38:58;10.07;;;7.50;;
11675;SDS011;5894;42.768;23.404;2023-04-06T09:41:26;10.30;;;7.63;;
11675;SDS011;5894;42.768;23.404;2023-04-06T09:44:02;11.60;;;8.43;;
11675;SDS011;5894;42.768;23.404;2023-04-06T09:46:31;11.57;;;8.80;;
11675;SDS011;5894;42.768;23.404;2023-04-06T09:49:00;13.03;;;9.07;;
11675;SDS011;5894;42.768;23.404;2023-04-06T09:51:29;12.10;;;9.53;;
11675;SDS011;5894;42.768;23.404;2023-04-06T09:53:58;13.40;;;7.93;;
11675;SDS011;5894;42.768;23.404;2023-04-06T09:56:28;13.37;;;8.37;;
11675;SDS011;5894;42.768;23.404;2023-04-06T09:59:04;13.70;;;8.50;;
11675;SDS011;5894;42.768;23.404;2023-04-06T10:01:34;10.00;;;8.53;;
11675;SDS011;5894;42.768;23.404;2023-04-06T10:04:06;11.67;;;9.77;;
11675;SDS011;5894;42.768;23.404;2023-04-06T10:06:39;10.57;;;8.50;;
11675;SDS011;5894;42.768;23.404;2023-04-06T10:09:07;10.87;;;8.67;;
11675;SDS011;5894;42.768;23.404;2023-04-06T10:11:34;11.80;;;8.27;;
11675;SDS011;5894;42.768;23.404;2023-04-06T10:14:03;10.67;;;7.90;;
11675;SDS011;5894;42.768;23.404;2023-04-06T10:16:30;10.10;;;7.43;;
11675;SDS011;5894;42.768;23.404;2023-04-06T10:18:59;14.23;;;8.10;;
11675;SDS011;5894;42.768;23.404;2023-04-06T10:21:33;16.10;;;8.87;;
11675;SDS011;5894;42.768;23.404;2023-04-06T10:24:02;12.67;;;7.60;;
11675;SDS011;5894;42.768;23.404;2023-04-06T10:26:35;9.70;;;7.67;;
11675;SDS011;5894;42.768;23.404;2023-04-06T10:29:03;9.27;;;7.23;;
11675;SDS011;5894;42.768;23.404;2023-04-06T10:31:31;10.17;;;6.77;;
11675;SDS011;5894;42.768;23.404;2023-04-06T10:33:59;9.30;;;6.93;;
11675;SDS011;5894;42.768;23.404;2023-04-06T10:36:27;7.87;;;6.93;;
11675;SDS011;5894;42.768;23.404;2023-04-06T10:38:56;12.50;;;7.87;;
11675;SDS011;5894;42.768;23.404;2023-04-06T10:41:24;8.70;;;7.60;;
11675;SDS011;5894;42.768;23.404;2023-04-06T10:43:58;11.83;;;7.27;;
11675;SDS011;5894;42.768;23.404;2023-04-06T10:46:29;12.33;;;7.37;;
11675;SDS011;5894;42.768;23.404;2023-04-06T10:48:58;10.67;;;7.33;;
11675;SDS011;5894;42.768;23.404;2023-04-06T10:51:37;9.63;;;7.80;;
11675;SDS011;5894;42.768;23.404;2023-04-06T10:54:05;14.13;;;7.90;;
11675;SDS011;5894;42.768;23.404;2023-04-06T10:56:33;9.87;;;7.93;;
11675;SDS011;5894;42.768;23.404;2023-04-06T10:59:04;9.50;;;7.70;;
11675;SDS011;5894;42.768;23.404;2023-04-06T11:01:34;9.37;;;6.73;;
11675;SDS011;5894;42.768;23.404;2023-04-06T11:04:01;9.33;;;7.77;;
11675;SDS011;5894;42.768;23.404;2023-04-06T11:06:28;6.97;;;6.13;;
11675;SDS011;5894;42.768;23.404;2023-04-06T11:08:57;9.93;;;6.20;;
11675;SDS011;5894;42.768;23.404;2023-04-06T11:11:25;8.07;;;6.13;;
11675;SDS011;5894;42.768;23.404;2023-04-06T11:13:54;7.00;;;6.27;;
11675;SDS011;5894;42.768;23.404;2023-04-06T11:16:23;8.00;;;6.80;;
11675;SDS011;5894;42.768;23.404;2023-04-06T11:18:54;7.73;;;6.13;;
11675;SDS011;5894;42.768;23.404;2023-04-06T11:21:31;9.63;;;6.80;;
11675;SDS011;5894;42.768;23.404;2023-04-06T11:24:03;10.10;;;7.07;;
11675;SDS011;5894;42.768;23.404;2023-04-06T11:26:36;10.30;;;7.23;;
11675;SDS011;5894;42.768;23.404;2023-04-06T11:29:03;6.27;;;5.63;;
11675;SDS011;5894;42.768;23.404;2023-04-06T11:31:30;8.07;;;6.20;;
11675;SDS011;5894;42.768;23.404;2023-04-06T11:33:59;8.87;;;6.00;;
11675;SDS011;5894;42.768;23.404;2023-04-06T11:36:27;8.00;;;6.13;;
11675;SDS011;5894;42.768;23.404;2023-04-06T11:38:56;12.13;;;6.73;;
11675;SDS011;5894;42.768;23.404;2023-04-06T11:41:23;8.07;;;6.70;;
11675;SDS011;5894;42.768;23.404;2023-04-06T11:43:55;8.87;;;7.40;;
11675;SDS011;5894;42.768;23.404;2023-04-06T11:46:22;7.53;;;6.77;;
11675;SDS011;5894;42.768;23.404;2023-04-06T11:48:48;11.70;;;8.20;;
11675;SDS011;5894;42.768;23.404;2023-04-06T11:51:22;9.97;;;7.43;;
11675;SDS011;5894;42.768;23.404;2023-04-06T11:53:49;11.97;;;7.83;;
11675;SDS011;5894;42.768;23.404;2023-04-06T11:56:22;8.97;;;7.10;;
11675;SDS011;5894;42.768;23.404;2023-04-06T11:58:51;10.77;;;7.30;;
11675;SDS011;5894;42.768;23.404;2023-04-06T12:01:18;8.73;;;7.10;;
11675;SDS011;5894;42.768;23.404;2023-04-06T12:03:44;7.43;;;6.57;;
11675;SDS011;5894;42.768;23.404;2023-04-06T12:06:11;8.73;;;6.00;;
11675;SDS011;5894;42.768;23.404;2023-04-06T12:08:40;10.03;;;6.33;;
11675;SDS011;5894;42.768;23.404;2023-04-06T12:11:07;13.47;;;8.93;;
11675;SDS011;5894;42.768;23.404;2023-04-06T12:13:33;12.20;;;7.87;;
11675;SDS011;5894;42.768;23.404;2023-04-06T12:16:00;12.97;;;7.90;;
11675;SDS011;5894;42.768;23.404;2023-04-06T12:18:27;8.47;;;6.10;;
11675;SDS011;5894;42.768;23.404;2023-04-06T12:20:54;10.67;;;7.20;;
11675;SDS011;5894;42.768;23.404;2023-04-06T12:23:21;7.03;;;6.33;;
11675;SDS011;5894;42.768;23.404;2023-04-06T12:25:49;6.90;;;5.97;;
11675;SDS011;5894;42.768;23.404;2023-04-06T12:28:16;7.47;;;6.47;;
11675;SDS011;5894;42.768;23.404;2023-04-06T12:30:45;10.03;;;7.03;;
11675;SDS011;5894;42.768;23.404;2023-04-06T12:33:12;12.83;;;7.80;;
11675;SDS011;5894;42.768;23.404;2023-04-06T12:35:39;9.93;;;7.53;;
11675;SDS011;5894;42.768;23.404;2023-04-06T12:38:06;12.87;;;9.10;;
11675;SDS011;5894;42.768;23.404;2023-04-06T12:40:36;9.47;;;7.37;;
11675;SDS011;5894;42.768;23.404;2023-04-06T12:43:04;13.47;;;9.70;;
11675;SDS011;5894;42.768;23.404;2023-04-06T12:45:31;12.57;;;8.83;;
11675;SDS011;5894;42.768;23.404;2023-04-06T12:47:58;8.10;;;6.03;;
11675;SDS011;5894;42.768;23.404;2023-04-06T12:50:25;9.07;;;6.63;;
11675;SDS011;5894;42.768;23.404;2023-04-06T12:52:52;7.70;;;6.53;;
11675;SDS011;5894;42.768;23.404;2023-04-06T12:55:19;10.20;;;7.77;;
11675;SDS011;5894;42.768;23.404;2023-04-06T12:57:47;9.83;;;7.10;;
11675;SDS011;5894;42.768;23.404;2023-04-06T13:00:15;8.97;;;5.90;;
11675;SDS011;5894;42.768;23.404;2023-04-06T13:02:43;8.60;;;5.87;;
11675;SDS011;5894;42.768;23.404;2023-04-06T13:05:12;8.97;;;6.60;;
11675;SDS011;5894;42.768;23.404;2023-04-06T13:07:43;8.20;;;6.00;;
11675;SDS011;5894;42.768;23.404;2023-04-06T13:10:11;6.77;;;5.83;;
11675;SDS011;5894;42.768;23.404;2023-04-06T13:12:38;6.90;;;5.70;;
11675;SDS011;5894;42.768;23.404;2023-04-06T13:15:05;7.27;;;6.10;;
11675;SDS011;5894;42.768;23.404;2023-04-06T13:17:34;9.77;;;7.00;;
11675;SDS011;5894;42.768;23.404;2023-04-06T13:20:01;10.60;;;6.53;;
11675;SDS011;5894;42.768;23.404;2023-04-06T13:22:28;8.67;;;6.23;;
11675;SDS011;5894;42.768;23.404;2023-04-06T13:24:55;10.63;;;7.17;;
11675;SDS011;5894;42.768;23.404;2023-04-06T13:27:22;8.33;;;5.90;;
11675;SDS011;5894;42.768;23.404;2023-04-06T13:29:49;7.83;;;5.90;;
11675;SDS011;5894;42.768;23.404;2023-04-06T13:32:16;6.63;;;5.50;;
11675;SDS011;5894;42.768;23.404;2023-04-06T13:34:44;9.27;;;7.33;;
11675;SDS011;5894;42.768;23.404;2023-04-06T13:37:13;12.37;;;7.73;;
11675;SDS011;5894;42.768;23.404;2023-04-06T13:39:40;11.17;;;6.70;;
11675;SDS011;5894;42.768;23.404;2023-04-06T13:42:06;13.57;;;7.20;;
11675;SDS011;5894;42.768;23.404;2023-04-06T13:44:35;11.53;;;8.10;;
11675;SDS011;5894;42.768;23.404;2023-04-06T13:47:02;9.53;;;7.90;;
11675;SDS011;5894;42.768;23.404;2023-04-06T13:49:28;9.13;;;7.27;;
11675;SDS011;5894;42.768;23.404;2023-04-06T13:51:57;11.40;;;8.03;;
11675;SDS011;5894;42.768;23.404;2023-04-06T13:54:25;10.37;;;7.40;;
11675;SDS011;5894;42.768;23.404;2023-04-06T13:56:53;23.27;;;12.73;;
11675;SDS011;5894;42.768;23.404;2023-04-06T13:59:20;21.20;;;12.80;;
11675;SDS011;5894;42.768;23.404;2023-04-06T14:01:47;28.50;;;15.87;;
11675;SDS011;5894;42.768;23.404;2023-04-06T14:04:14;15.27;;;9.77;;
11675;SDS011;5894;42.768;23.404;2023-04-06T14:06:41;13.30;;;9.50;;
11675;SDS011;5894;42.768;23.404;2023-04-06T14:09:09;11.33;;;8.73;;
11675;SDS011;5894;42.768;23.404;2023-04-06T14:11:36;12.57;;;7.83;;
11675;SDS011;5894;42.768;23.404;2023-04-06T14:14:03;8.40;;;6.87;;
11675;SDS011;5894;42.768;23.404;2023-04-06T14:16:30;9.77;;;7.47;;
11675;SDS011;5894;42.768;23.404;2023-04-06T14:18:57;10.80;;;7.70;;
11675;SDS011;5894;42.768;23.404;2023-04-06T14:21:24;10.57;;;7.10;;
11675;SDS011;5894;42.768;23.404;2023-04-06T14:23:51;11.23;;;8.27;;
11675;SDS011;5894;42.768;23.404;2023-04-06T14:26:20;10.43;;;7.20;;
11675;SDS011;5894;42.768;23.404;2023-04-06T14:28:47;10.30;;;7.40;;
11675;SDS011;5894;42.768;23.404;2023-04-06T14:31:14;10.33;;;7.60;;
11675;SDS011;5894;42.768;23.404;2023-04-06T14:33:42;10.77;;;7.77;;
11675;SDS011;5894;42.768;23.404;2023-04-06T14:36:09;11.87;;;8.23;;
11675;SDS011;5894;42.768;23.404;2023-04-06T14:38:36;11.10;;;8.60;;
11675;SDS011;5894;42.768;23.404;2023-04-06T14:41:04;11.67;;;8.77;;
11675;SDS011;5894;42.768;23.404;2023-04-06T14:43:32;13.40;;;8.70;;